createdAt,value
2018-06-15T00:00:58.597Z,101126.42
2018-06-15T00:04:02.890Z,101128.13
2018-06-15T00:07:07.219Z,101127.63
2018-06-15T00:10:11.501Z,101132.37
2018-06-15T00:13:15.776Z,101132.73
2018-06-15T00:16:20.087Z,101134.44
2018-06-15T00:19:24.419Z,101139.19
2018-06-15T00:22:28.692Z,101136.94
2018-06-15T00:25:33.021Z,101141.67
2018-06-15T00:28:37.329Z,101145.55
2018-06-15T00:31:44.127Z,101146.78
2018-06-15T00:34:48.485Z,101152.43
2018-06-15T00:37:52.873Z,101148.87
2018-06-15T00:40:57.142Z,101145.32
2018-06-15T00:44:01.446Z,101143.11
2018-06-15T00:47:06.316Z,101148.75
2018-06-15T00:50:10.605Z,101142.99
2018-06-15T00:53:14.901Z,101146.90
2018-06-15T00:56:19.159Z,101149.03
2018-06-15T00:59:25.796Z,101151.55
2018-06-15T01:02:30.189Z,101144.61
2018-06-15T01:05:34.530Z,101147.60
2018-06-15T01:08:38.818Z,101148.39
2018-06-15T01:11:42.943Z,101148.30
2018-06-15T01:14:47.196Z,101148.66
2018-06-15T01:17:51.470Z,101154.64
2018-06-15T01:20:56.025Z,101156.33
2018-06-15T01:24:00.692Z,101158.89
2018-06-15T01:27:05.643Z,101162.28
2018-06-15T01:30:10.375Z,101168.70
2018-06-15T01:33:14.801Z,101163.88
2018-06-15T01:36:19.277Z,101167.26
2018-06-15T01:39:23.658Z,101169.86
2018-06-15T01:42:28.021Z,101165.95
2018-06-15T01:45:32.602Z,101172.94
2018-06-15T01:48:37.012Z,101174.69
2018-06-15T01:51:41.067Z,101177.62
2018-06-15T01:54:45.355Z,101170.09
2018-06-15T01:57:49.933Z,101170.39
2018-06-15T02:00:54.229Z,101172.80
2018-06-15T02:03:58.577Z,101172.61
2018-06-15T02:07:02.841Z,101177.28
2018-06-15T02:10:07.187Z,101179.45
2018-06-15T02:13:11.441Z,101180.65
2018-06-15T02:16:16.489Z,101182.77
2018-06-15T02:19:20.828Z,101183.14
2018-06-15T02:22:25.156Z,101181.78
2018-06-15T02:25:29.744Z,101183.42
2018-06-15T02:28:34.003Z,101188.51
2018-06-15T02:31:38.325Z,101191.86
2018-06-15T02:34:42.381Z,101186.98
2018-06-15T02:37:46.644Z,101191.58
2018-06-15T02:40:50.982Z,101196.25
2018-06-15T02:43:55.267Z,101199.64
2018-06-15T02:46:59.540Z,101204.75
2018-06-15T02:50:04.004Z,101205.98
2018-06-15T02:53:08.261Z,101210.31
2018-06-15T02:56:12.612Z,101214.59
2018-06-15T02:59:16.904Z,101214.59
2018-06-15T03:02:21.230Z,101223.27
2018-06-15T03:05:25.551Z,101222.51
2018-06-15T03:08:29.696Z,101227.72
2018-06-15T03:11:33.993Z,101228.09
2018-06-15T03:14:38.310Z,101232.48
2018-06-15T03:17:42.589Z,101230.92
2018-06-15T03:20:46.845Z,101240.33
2018-06-15T03:23:51.201Z,101245.22
2018-06-15T03:26:55.499Z,101246.58
2018-06-15T03:29:59.816Z,101242.63
2018-06-15T03:33:04.141Z,101256.02
2018-06-15T03:36:08.471Z,101250.28
2018-06-15T03:39:13.385Z,101245.48
2018-06-15T03:42:18.663Z,101252.31
2018-06-15T03:45:25.210Z,101259.09
2018-06-15T03:48:29.536Z,101257.67
2018-06-15T03:51:35.344Z,101269.41
2018-06-15T03:54:39.603Z,101269.12
2018-06-15T03:57:43.932Z,101279.23
2018-06-15T04:00:48.344Z,101277.24
2018-06-15T04:03:52.768Z,101287.49
2018-06-15T04:07:01.017Z,101286.72
2018-06-15T04:10:05.332Z,101292.75
2018-06-15T04:13:09.675Z,101297.06
2018-06-15T04:16:14.049Z,101296.39
2018-06-15T04:19:18.368Z,101295.94
2018-06-15T04:22:22.714Z,101301.99
2018-06-15T04:25:27.079Z,101303.38
2018-06-15T04:28:31.434Z,101300.02
2018-06-15T04:31:35.752Z,101302.50
2018-06-15T04:34:40.174Z,101299.41
2018-06-15T04:37:44.648Z,101303.27
2018-06-15T04:40:48.928Z,101299.22
2018-06-15T04:43:53.217Z,101304.82
2018-06-15T04:46:57.584Z,101294.00
2018-06-15T04:50:01.887Z,101300.52
2018-06-15T04:53:06.439Z,101308.83
2018-06-15T04:56:10.791Z,101319.34
2018-06-15T04:59:15.147Z,101312.09
2018-06-15T05:02:19.541Z,101322.20
2018-06-15T05:05:23.996Z,101328.80
2018-06-15T05:08:28.320Z,101333.25
2018-06-15T05:11:32.701Z,101328.65
2018-06-15T05:14:37.140Z,101328.86
2018-06-15T05:17:41.492Z,101338.61
2018-06-15T05:20:45.844Z,101335.77
2018-06-15T05:23:50.095Z,101338.94
2018-06-15T05:26:54.423Z,101340.80
2018-06-15T05:29:58.692Z,101336.17
2018-06-15T05:33:03.022Z,101341.51
2018-06-15T05:36:07.318Z,101344.63
2018-06-15T05:39:12.327Z,101353.41
2018-06-15T05:42:16.667Z,101353.16
2018-06-15T05:45:21.018Z,101359.00
2018-06-15T05:48:25.315Z,101360.02
2018-06-15T05:51:29.665Z,101357.94
2018-06-15T05:54:33.945Z,101353.71
2018-06-15T05:57:38.405Z,101357.66
2018-06-15T06:00:42.754Z,101356.05
2018-06-15T06:03:47.076Z,101369.25
2018-06-15T06:06:51.324Z,101368.06
2018-06-15T06:09:55.669Z,101363.36
2018-06-15T06:12:59.691Z,101363.50
2018-06-15T06:16:04.018Z,101366.22
2018-06-15T06:19:08.308Z,101376.37
2018-06-15T06:22:12.636Z,101380.41
2018-06-15T06:25:17.021Z,101391.02
2018-06-15T06:28:21.231Z,101390.28
2018-06-15T06:31:25.585Z,101394.73
2018-06-15T06:34:29.941Z,101393.96
2018-06-15T06:37:34.242Z,101401.92
2018-06-15T06:40:38.562Z,101401.12
2018-06-15T06:43:42.909Z,101403.83
2018-06-15T06:46:47.214Z,101410.42
2018-06-15T06:49:51.513Z,101406.54
2018-06-15T06:52:55.861Z,101407.40
2018-06-15T06:56:00.258Z,101408.33
2018-06-15T06:59:04.583Z,101414.02
2018-06-15T07:02:08.873Z,101410.15
2018-06-15T07:05:13.242Z,101410.63
2018-06-15T07:08:17.581Z,101414.59
2018-06-15T07:11:21.868Z,101415.94
2018-06-15T07:14:26.181Z,101419.92
2018-06-15T07:17:30.479Z,101423.50
2018-06-15T07:20:34.729Z,101424.82
2018-06-15T07:23:39.092Z,101426.17
2018-06-15T07:26:43.379Z,101438.45
2018-06-15T07:29:47.705Z,101438.91
2018-06-15T07:32:52.020Z,101445.03
2018-06-15T07:35:56.385Z,101443.27
2018-06-15T07:39:00.752Z,101439.36
2018-06-15T07:42:07.693Z,101447.70
2018-06-15T07:45:11.965Z,101448.13
2018-06-15T07:48:16.263Z,101451.66
2018-06-15T07:51:20.631Z,101447.70
2018-06-15T07:54:24.854Z,101452.53
2018-06-15T07:57:29.128Z,101454.73
2018-06-15T08:00:33.484Z,101461.77
2018-06-15T08:03:37.753Z,101459.11
2018-06-15T08:06:42.449Z,101458.66
2018-06-15T08:09:46.749Z,101460.88
2018-06-15T08:12:50.992Z,101451.67
2018-06-15T08:15:55.399Z,101456.00
2018-06-15T08:18:59.683Z,101451.56
2018-06-15T08:22:03.998Z,101459.50
2018-06-15T08:25:08.265Z,101454.59
2018-06-15T08:28:12.528Z,101459.03
2018-06-15T08:31:16.992Z,101463.01
2018-06-15T08:34:21.356Z,101456.86
2018-06-15T08:37:25.684Z,101462.97
2018-06-15T08:40:29.969Z,101459.07
2018-06-15T08:43:34.239Z,101463.85
2018-06-15T08:46:38.927Z,101468.63
2018-06-15T08:49:43.219Z,101474.77
2018-06-15T08:52:47.663Z,101469.09
2018-06-15T08:55:52.071Z,101476.16
2018-06-15T08:58:56.475Z,101468.19
2018-06-15T09:02:00.900Z,101463.63
2018-06-15T09:05:05.190Z,101466.12
2018-06-15T09:08:09.497Z,101466.99
2018-06-15T09:11:13.821Z,101472.51
2018-06-15T09:14:18.128Z,101473.02
2018-06-15T09:17:22.452Z,101481.86
2018-06-15T09:20:26.772Z,101481.39
2018-06-15T09:23:31.093Z,101477.31
2018-06-15T09:26:35.417Z,101472.78
2018-06-15T09:29:39.699Z,101476.29
2018-06-15T09:32:44.129Z,101481.63
2018-06-15T09:35:49.364Z,101483.44
2018-06-15T09:38:53.749Z,101484.37
2018-06-15T09:41:58.065Z,101480.03
2018-06-15T09:45:02.354Z,101486.59
2018-06-15T09:48:07.238Z,101481.59
2018-06-15T09:51:12.354Z,101485.71
2018-06-15T09:54:16.644Z,101482.86
2018-06-15T09:57:20.977Z,101492.86
2018-06-15T10:00:30.621Z,101494.80
2018-06-15T10:03:34.887Z,101487.55
2018-06-15T10:06:39.242Z,101490.59
2018-06-15T10:09:43.566Z,101491.59
2018-06-15T10:12:47.876Z,101485.49
2018-06-15T10:15:52.385Z,101494.26
2018-06-15T10:18:57.956Z,101498.14
2018-06-15T10:22:02.303Z,101494.14
2018-06-15T10:25:06.598Z,101492.24
2018-06-15T10:28:10.948Z,101495.95
2018-06-15T10:31:15.313Z,101493.44
2018-06-15T10:34:19.648Z,101494.00
2018-06-15T10:37:24.011Z,101490.19
2018-06-15T10:40:28.369Z,101486.53
2018-06-15T10:43:32.713Z,101487.98
2018-06-15T10:46:37.017Z,101490.00
2018-06-15T10:49:41.309Z,101486.64
2018-06-15T10:52:45.579Z,101496.98
2018-06-15T10:55:49.924Z,101490.72
2018-06-15T10:58:54.206Z,101493.17
2018-06-15T11:01:58.524Z,101488.53
2018-06-15T11:05:02.854Z,101493.96
2018-06-15T11:08:07.173Z,101495.36
2018-06-15T11:11:11.519Z,101495.08
2018-06-15T11:14:15.787Z,101487.52
2018-06-15T11:17:20.121Z,101487.88
2018-06-15T11:20:24.449Z,101482.34
2018-06-15T11:23:28.765Z,101487.89
2018-06-15T11:26:33.117Z,101490.75
2018-06-15T11:29:37.508Z,101493.66
2018-06-15T11:32:41.820Z,101497.78
2018-06-15T11:35:46.165Z,101496.53
2018-06-15T11:38:50.442Z,101502.55
2018-06-15T11:41:54.904Z,101496.03
2018-06-15T11:44:59.175Z,101488.89
2018-06-15T11:48:03.544Z,101497.10
2018-06-15T11:51:08.036Z,101497.58
2018-06-15T11:54:12.390Z,101488.13
2018-06-15T11:57:16.696Z,101484.02
2018-06-15T12:00:21.043Z,101486.55
2018-06-15T12:03:25.324Z,101487.87
2018-06-15T12:06:29.661Z,101492.55
2018-06-15T12:09:33.924Z,101486.30
2018-06-15T12:12:38.321Z,101493.11
2018-06-15T12:15:42.601Z,101486.95
2018-06-15T12:18:46.936Z,101492.55
2018-06-15T12:21:51.512Z,101492.56
2018-06-15T12:24:56.204Z,101499.87
2018-06-15T12:28:00.511Z,101498.80
2018-06-15T12:31:04.820Z,101504.20
2018-06-15T12:34:11.945Z,101503.05
2018-06-15T12:37:16.247Z,101506.59
2018-06-15T12:40:20.515Z,101505.39
2018-06-15T12:43:24.856Z,101505.01
2018-06-15T12:46:29.213Z,101504.03
2018-06-15T12:49:33.646Z,101506.70
2018-06-15T12:52:38.091Z,101509.59
2018-06-15T12:55:42.454Z,101511.19
2018-06-15T12:58:46.769Z,101512.13
2018-06-15T13:01:51.095Z,101519.17
2018-06-15T13:04:55.384Z,101516.61
2018-06-15T13:07:59.743Z,101524.03
2018-06-15T13:11:04.311Z,101517.95
2018-06-15T13:14:08.575Z,101517.41
2018-06-15T13:17:12.711Z,101516.28
2018-06-15T13:20:17.013Z,101512.98
2018-06-15T13:23:21.284Z,101521.46
2018-06-15T13:26:25.673Z,101519.72
2018-06-15T13:29:29.965Z,101515.27
2018-06-15T13:32:34.279Z,101515.77
2018-06-15T13:35:38.772Z,101512.88
2018-06-15T13:38:44.679Z,101514.16
2018-06-15T13:41:49.464Z,101517.25
2018-06-15T13:44:53.732Z,101519.59
2018-06-15T13:47:58.884Z,101513.42
2018-06-15T13:51:03.179Z,101517.67
2018-06-15T13:54:07.522Z,101517.65
2018-06-15T13:57:11.868Z,101515.88
2018-06-15T14:00:16.112Z,101522.89
2018-06-15T14:03:20.395Z,101516.64
2018-06-15T14:06:24.717Z,101509.42
2018-06-15T14:09:28.948Z,101517.40
2018-06-15T14:12:33.302Z,101516.75
2018-06-15T14:15:37.349Z,101513.01
2018-06-15T14:18:41.625Z,101521.98
2018-06-15T14:21:45.961Z,101517.27
2018-06-15T14:24:50.072Z,101522.14
2018-06-15T14:27:54.387Z,101522.66
2018-06-15T14:30:58.692Z,101519.28
2018-06-15T14:34:03.024Z,101522.34
2018-06-15T14:37:07.351Z,101530.10
2018-06-15T14:40:11.612Z,101522.13
2018-06-15T14:43:15.979Z,101523.30
2018-06-15T14:46:20.327Z,101512.05
2018-06-15T14:49:25.026Z,101518.45
2018-06-15T14:52:29.342Z,101513.64
2018-06-15T14:55:33.672Z,101516.70
2018-06-15T14:58:38.029Z,101516.56
2018-06-15T15:01:42.288Z,101507.89
2018-06-15T15:04:46.364Z,101509.69
2018-06-15T15:07:50.639Z,101512.59
2018-06-15T15:10:54.709Z,101517.52
2018-06-15T15:13:58.983Z,101513.23
2018-06-15T15:17:03.121Z,101516.11
2018-06-15T15:20:07.396Z,101517.86
2018-06-15T15:23:11.676Z,101513.97
2018-06-15T15:26:15.956Z,101517.16
2018-06-15T15:29:20.245Z,101516.08
2018-06-15T15:32:24.560Z,101506.84
2018-06-15T15:35:29.150Z,101507.00
2018-06-15T15:38:33.530Z,101507.34
2018-06-15T15:41:37.829Z,101509.66
2018-06-15T15:44:42.155Z,101511.80
2018-06-15T15:47:46.501Z,101510.73
2018-06-15T15:50:50.888Z,101510.78
2018-06-15T15:53:55.160Z,101507.53
2018-06-15T15:56:59.573Z,101515.16
2018-06-15T16:00:04.000Z,101515.23
2018-06-15T16:03:08.393Z,101512.97
2018-06-15T16:06:12.717Z,101510.91
2018-06-15T16:09:16.983Z,101517.32
2018-06-15T16:12:21.512Z,101512.63
2018-06-15T16:15:25.851Z,101513.33
2018-06-15T16:18:30.181Z,101513.98
2018-06-15T16:21:34.473Z,101511.16
2018-06-15T16:24:38.830Z,101509.84
2018-06-15T16:27:43.134Z,101502.57
2018-06-15T16:30:47.496Z,101499.91
2018-06-15T16:33:51.906Z,101507.63
2018-06-15T16:36:56.330Z,101501.09
2018-06-15T16:40:00.637Z,101508.34
2018-06-15T16:43:04.904Z,101504.39
2018-06-15T16:46:09.309Z,101511.59
2018-06-15T16:49:13.689Z,101506.27
2018-06-15T16:52:17.966Z,101507.13
2018-06-15T16:55:22.304Z,101504.52
2018-06-15T16:58:26.590Z,101501.64
2018-06-15T17:01:30.948Z,101497.72
2018-06-15T17:04:35.298Z,101497.60
2018-06-15T17:07:39.687Z,101494.87
2018-06-15T17:10:44.037Z,101507.05
2018-06-15T17:13:48.494Z,101504.37
2018-06-15T17:16:52.894Z,101504.15
2018-06-15T17:19:57.312Z,101499.08
2018-06-15T17:23:01.767Z,101494.70
2018-06-15T17:26:06.147Z,101493.22
2018-06-15T17:29:10.434Z,101496.16
2018-06-15T17:32:14.781Z,101495.38
2018-06-15T17:35:19.167Z,101491.69
2018-06-15T17:38:23.757Z,101491.94
2018-06-15T17:41:28.056Z,101487.30
2018-06-15T17:44:32.406Z,101483.17
2018-06-15T17:47:36.693Z,101487.28
2018-06-15T17:50:41.074Z,101489.62
2018-06-15T17:53:45.696Z,101488.38
2018-06-15T17:56:50.093Z,101488.55
2018-06-15T17:59:54.415Z,101490.90
2018-06-15T18:02:58.772Z,101483.50
2018-06-15T18:06:03.102Z,101487.02
2018-06-15T18:09:10.404Z,101483.59
2018-06-15T18:12:14.830Z,101485.88
2018-06-15T18:15:19.181Z,101485.11
2018-06-15T18:18:23.427Z,101483.38
2018-06-15T18:21:27.755Z,101482.12
2018-06-15T18:24:32.086Z,101482.17
2018-06-15T18:27:36.435Z,101483.52
2018-06-15T18:30:40.848Z,101489.70
2018-06-15T18:33:45.161Z,101485.78
2018-06-15T18:36:49.517Z,101490.66
2018-06-15T18:39:54.191Z,101485.81
2018-06-15T18:42:58.511Z,101491.99
2018-06-15T18:46:02.870Z,101487.59
2018-06-15T18:49:07.617Z,101489.34
2018-06-15T18:52:12.034Z,101485.88
2018-06-15T18:55:16.734Z,101481.91
2018-06-15T18:58:21.046Z,101487.61
2018-06-15T19:01:25.647Z,101484.95
2018-06-15T19:04:30.094Z,101481.45
2018-06-15T19:07:34.552Z,101481.44
2018-06-15T19:10:38.841Z,101480.12
2018-06-15T19:13:44.324Z,101483.16
2018-06-15T19:16:48.732Z,101484.44
2018-06-15T19:19:53.021Z,101487.06
2018-06-15T19:23:02.607Z,101489.19
2018-06-15T19:26:06.861Z,101489.17
2018-06-15T19:29:11.341Z,101492.17
2018-06-15T19:32:15.739Z,101484.22
2018-06-15T19:35:20.316Z,101493.35
2018-06-15T19:38:24.667Z,101500.28
2018-06-15T19:41:29.057Z,101491.05
2018-06-15T19:44:33.437Z,101494.91
2018-06-15T19:47:37.857Z,101500.55
2018-06-15T19:50:42.254Z,101499.19
2018-06-15T19:53:46.506Z,101500.48
2018-06-15T19:56:50.886Z,101500.45
2018-06-15T19:59:55.232Z,101501.24
2018-06-15T20:02:59.640Z,101505.55
2018-06-15T20:06:04.084Z,101504.16
2018-06-15T20:09:09.223Z,101498.75
2018-06-15T20:12:13.665Z,101502.08
2018-06-15T20:15:18.040Z,101502.09
2018-06-15T20:18:22.349Z,101495.10
2018-06-15T20:21:26.596Z,101495.84
2018-06-15T20:24:30.958Z,101500.05
2018-06-15T20:27:35.219Z,101498.19
2018-06-15T20:30:39.509Z,101495.88
2018-06-15T20:33:43.848Z,101488.84
2018-06-15T20:36:48.128Z,101500.96
2018-06-15T20:39:52.500Z,101506.09
2018-06-15T20:42:56.802Z,101518.27
2018-06-15T20:46:01.107Z,101514.25
2018-06-15T20:49:05.733Z,101511.53
2018-06-15T20:52:10.321Z,101510.59
2018-06-15T20:55:14.804Z,101511.72
2018-06-15T20:58:19.335Z,101511.09
2018-06-15T21:01:23.729Z,101509.31
2018-06-15T21:04:28.035Z,101502.27
2018-06-15T21:07:33.548Z,101508.21
2018-06-15T21:10:38.091Z,101503.38
2018-06-15T21:13:42.400Z,101500.72
2018-06-15T21:16:46.797Z,101498.42
2018-06-15T21:19:51.357Z,101492.29
2018-06-15T21:22:55.731Z,101492.33
2018-06-15T21:26:00.035Z,101487.06
2018-06-15T21:29:04.879Z,101481.48
2018-06-15T21:32:09.184Z,101483.38
2018-06-15T21:35:13.614Z,101486.07
2018-06-15T21:38:17.914Z,101487.45
2018-06-15T21:41:22.253Z,101487.09
2018-06-15T21:44:26.681Z,101483.13
2018-06-15T21:47:31.081Z,101484.08
2018-06-15T21:50:35.792Z,101476.27
2018-06-15T21:53:40.085Z,101480.56
2018-06-15T21:56:44.549Z,101485.75
2018-06-15T21:59:48.798Z,101476.89
2018-06-15T22:02:53.281Z,101480.81
2018-06-15T22:05:57.657Z,101480.77
2018-06-15T22:09:02.004Z,101478.11
2018-06-15T22:12:06.346Z,101486.83
2018-06-15T22:15:10.781Z,101486.31
2018-06-15T22:18:15.062Z,101484.09
2018-06-15T22:21:19.406Z,101482.79
2018-06-15T22:24:24.155Z,101476.73
2018-06-15T22:27:28.512Z,101475.94
2018-06-15T22:30:32.848Z,101476.02
2018-06-15T22:33:37.173Z,101474.23
2018-06-15T22:36:41.987Z,101482.87
2018-06-15T22:39:46.397Z,101483.30
2018-06-15T22:42:50.758Z,101483.30
2018-06-15T22:45:54.912Z,101483.34
2018-06-15T22:48:59.343Z,101486.94
2018-06-15T22:52:03.954Z,101475.37
2018-06-15T22:55:08.539Z,101481.78
2018-06-15T22:58:13.008Z,101484.94
2018-06-15T23:01:17.422Z,101481.05
2018-06-15T23:04:21.733Z,101479.34
2018-06-15T23:07:26.161Z,101492.48
2018-06-15T23:10:30.606Z,101498.63
2018-06-15T23:13:35.129Z,101503.88
2018-06-15T23:16:39.519Z,101507.47
2018-06-15T23:19:44.070Z,101504.08
2018-06-15T23:22:48.485Z,101508.94
2018-06-15T23:25:52.843Z,101510.28
2018-06-15T23:28:57.228Z,101507.23
2018-06-15T23:32:02.413Z,101497.69
2018-06-15T23:35:06.891Z,101490.74
2018-06-15T23:38:11.297Z,101493.80
2018-06-15T23:41:15.642Z,101501.21
2018-06-15T23:44:20.015Z,101499.03
2018-06-15T23:47:24.667Z,101490.27
2018-06-15T23:50:29.108Z,101491.61
2018-06-15T23:53:33.747Z,101489.84
2018-06-15T23:56:38.070Z,101490.68
2018-06-15T23:59:42.575Z,101489.78
